Time;durP1;ratioP1;P1;durP2;ratioP2;P2;SDS_P1;SDS_P2;PMS_P1;PMS_P2;Temp;Humidity;BMP_temperature;BMP_pressure;BME280_temperature;BME280_humidity;BME280_pressure;Samples;Min_cycle;Max_cycle;Signal;HPM_P1;HPM_P2
2021/03/02 00:00:09;;;;;;;9.48;6.50;;;8.30;99.90;;;;;;5070439;28;20131;-72
2021/03/02 00:02:41;;;;;;;10.38;7.40;;;8.30;99.90;;;;;;5070626;28;20047;-72
2021/03/02 00:05:09;;;;;;;11.43;7.15;;;8.30;99.90;;;;;;5070923;28;20352;-73
2021/03/02 00:07:35;;;;;;;10.73;7.22;;;8.30;99.90;;;;;;5070809;28;20028;-72
2021/03/02 00:10:04;;;;;;;8.23;6.60;;;8.40;99.90;;;;;;5052092;28;20496;-71
2021/03/02 00:12:30;;;;;;;8.45;6.22;;;8.30;99.90;;;;;;5070626;28;20037;-71
2021/03/02 00:14:55;;;;;;;8.93;6.15;;;8.20;99.90;;;;;;5052085;28;20375;-72
2021/03/02 00:17:47;;;;;;;10.50;7.38;;;8.20;99.90;;;;;;5052896;28;20056;-72
2021/03/02 00:20:23;;;;;;;10.18;6.75;;;8.20;99.90;;;;;;5070436;28;20031;-71
2021/03/02 00:23:01;;;;;;;9.82;6.93;;;8.20;99.90;;;;;;5082491;28;20056;-72
2021/03/02 00:25:36;;;;;;;12.18;6.30;;;8.20;99.90;;;;;;5089821;28;20024;-72
2021/03/02 00:28:05;;;;;;;13.05;6.85;;;8.20;99.90;;;;;;5089051;28;20058;-72
2021/03/02 00:30:32;;;;;;;9.38;6.72;;;8.20;99.90;;;;;;5089641;28;20059;-72
2021/03/02 00:33:01;;;;;;;10.02;6.32;;;8.10;99.90;;;;;;5088753;28;20446;-72
2021/03/02 00:35:27;;;;;;;9.40;6.05;;;8.20;99.90;;;;;;5089283;28;20025;-72
2021/03/02 00:37:53;;;;;;;11.52;6.57;;;8.10;99.90;;;;;;5093694;28;20032;-71
2021/03/02 00:40:19;;;;;;;12.65;6.72;;;8.10;99.90;;;;;;5093019;28;20035;-72
2021/03/02 00:42:44;;;;;;;16.75;7.20;;;8.10;99.90;;;;;;5093985;28;20039;-72
2021/03/02 00:45:11;;;;;;;31.60;8.02;;;8.00;99.90;;;;;;5092407;28;20089;-72
2021/03/02 00:47:37;;;;;;;28.58;7.72;;;8.10;99.90;;;;;;5092900;28;20028;-72
2021/03/02 00:50:07;;;;;;;17.80;7.28;;;8.10;99.90;;;;;;5092408;28;20030;-72
2021/03/02 00:52:33;;;;;;;12.77;7.15;;;8.10;99.90;;;;;;5092894;28;20470;-72
2021/03/02 00:54:59;;;;;;;48.92;9.38;;;8.10;99.90;;;;;;5093831;28;20024;-71
2021/03/02 00:57:25;;;;;;;21.02;8.23;;;8.10;99.90;;;;;;5092697;28;20053;-72
2021/03/02 00:59:50;;;;;;;23.77;8.23;;;8.10;99.90;;;;;;5092109;28;20020;-72
2021/03/02 01:02:16;;;;;;;24.55;8.13;;;8.00;99.90;;;;;;5093788;28;20538;-72
2021/03/02 01:04:42;;;;;;;30.35;8.27;;;7.90;99.90;;;;;;5092628;28;20024;-72
2021/03/02 01:07:07;;;;;;;18.35;7.15;;;8.00;99.90;;;;;;5092149;28;20134;-72
2021/03/02 01:09:33;;;;;;;18.33;7.13;;;8.00;99.90;;;;;;5093644;28;20135;-73
2021/03/02 01:12:00;;;;;;;12.93;7.05;;;8.00;99.90;;;;;;5093219;28;20461;-72
2021/03/02 01:14:27;;;;;;;12.15;6.80;;;8.00;99.90;;;;;;5092549;28;20028;-72
2021/03/02 01:16:54;;;;;;;18.02;7.28;;;7.90;99.90;;;;;;5091751;28;20086;-71
2021/03/02 01:19:19;;;;;;;12.90;6.75;;;7.90;99.90;;;;;;5094092;28;20038;-71
2021/03/02 01:21:45;;;;;;;15.35;7.30;;;7.90;99.90;;;;;;5092172;28;20044;-72
2021/03/02 01:24:11;;;;;;;15.18;7.90;;;7.90;99.90;;;;;;5093167;28;20708;-72
2021/03/02 01:26:37;;;;;;;16.02;7.00;;;7.80;99.90;;;;;;5093574;28;20028;-71
2021/03/02 01:29:04;;;;;;;9.80;6.38;;;7.80;99.90;;;;;;5091634;28;20024;-72
2021/03/02 01:31:29;;;;;;;9.70;7.07;;;7.70;99.90;;;;;;5093176;28;20043;-71
2021/03/02 01:33:55;;;;;;;10.48;6.30;;;7.80;99.90;;;;;;5093028;28;20024;-71
2021/03/02 01:36:21;;;;;;;13.68;7.03;;;7.70;99.90;;;;;;5093625;28;20454;-71
2021/03/02 01:38:47;;;;;;;12.60;7.10;;;7.70;99.90;;;;;;5091907;28;20118;-71
2021/03/02 01:41:13;;;;;;;10.00;6.85;;;7.80;99.90;;;;;;5091515;28;20384;-71
2021/03/02 01:43:39;;;;;;;11.15;7.38;;;7.80;99.90;;;;;;5094034;28;20036;-73
2021/03/02 01:46:05;;;;;;;10.20;6.70;;;7.80;99.90;;;;;;5091298;28;20020;-73
2021/03/02 01:48:34;;;;;;;11.13;6.80;;;7.70;99.90;;;;;;5091307;28;20030;-71
2021/03/02 01:51:01;;;;;;;10.65;6.85;;;7.70;99.90;;;;;;5091076;28;20130;-72
2021/03/02 01:53:26;;;;;;;10.38;6.40;;;7.70;99.90;;;;;;5092861;28;20047;-72
2021/03/02 01:55:52;;;;;;;10.35;6.60;;;7.70;99.90;;;;;;5092801;28;20366;-71
2021/03/02 01:58:17;;;;;;;11.32;6.07;;;7.70;99.90;;;;;;5090919;28;20030;-71
2021/03/02 02:00:44;;;;;;;10.57;6.55;;;7.70;99.90;;;;;;5092822;28;20032;-71
2021/03/02 02:03:25;;;;;;;9.23;6.82;;;7.60;99.90;;;;;;5092068;28;20020;-72
2021/03/02 02:06:17;;;;;;;12.48;6.90;;;7.60;99.90;;;;;;5093028;28;20039;-72
2021/03/02 02:08:58;;;;;;;9.25;6.70;;;7.50;99.90;;;;;;5092734;28;20111;-72
2021/03/02 02:11:40;;;;;;;14.85;7.35;;;7.50;99.90;;;;;;5091505;28;20036;-72
2021/03/02 02:14:43;;;;;;;10.68;5.72;;;7.50;99.90;;;;;;5091945;28;20046;-71
2021/03/02 02:17:21;;;;;;;10.65;6.10;;;7.60;99.90;;;;;;5092031;28;20039;-72
2021/03/02 02:19:57;;;;;;;15.27;7.15;;;7.50;99.90;;;;;;5091464;28;20076;-72
2021/03/02 02:23:00;;;;;;;9.20;6.47;;;7.50;99.90;;;;;;5079037;28;20076;-71
2021/03/02 02:25:48;;;;;;;9.07;6.35;;;7.50;99.90;;;;;;5072233;28;20090;-71
2021/03/02 02:28:16;;;;;;;10.63;6.65;;;7.40;99.90;;;;;;5071540;28;20063;-71
2021/03/02 02:30:46;;;;;;;10.60;6.93;;;7.40;99.90;;;;;;5072280;28;20044;-71
2021/03/02 02:33:13;;;;;;;11.65;6.82;;;7.30;99.90;;;;;;5070988;28;20103;-71
2021/03/02 02:35:42;;;;;;;9.45;6.63;;;7.40;99.90;;;;;;5072097;28;20025;-71
2021/03/02 02:38:10;;;;;;;10.07;6.57;;;7.40;99.90;;;;;;5071206;28;20439;-71
2021/03/02 02:40:38;;;;;;;11.05;7.60;;;7.30;99.90;;;;;;5071783;28;20432;-70
2021/03/02 02:43:05;;;;;;;10.32;7.03;;;7.20;99.90;;;;;;5071081;28;20045;-71
2021/03/02 02:45:30;;;;;;;10.68;7.30;;;7.20;99.90;;;;;;5053872;28;20428;-70
2021/03/02 02:47:56;;;;;;;10.75;8.00;;;7.20;99.90;;;;;;5053049;28;20040;-75
2021/03/02 02:50:24;;;;;;;12.32;7.20;;;7.10;99.90;;;;;;5071594;28;20074;-71
2021/03/02 02:52:51;;;;;;;12.23;7.60;;;7.10;99.90;;;;;;5071467;28;20036;-71
2021/03/02 02:55:19;;;;;;;11.75;7.32;;;7.10;99.90;;;;;;5071043;28;20352;-71
2021/03/02 02:57:48;;;;;;;13.38;8.50;;;6.90;99.90;;;;;;5053721;28;20056;-71
2021/03/02 03:00:18;;;;;;;12.40;7.88;;;6.90;99.90;;;;;;5052875;28;20121;-71
2021/03/02 03:02:47;;;;;;;14.20;8.27;;;7.00;99.90;;;;;;5071733;28;20035;-71
2021/03/02 03:05:16;;;;;;;11.45;7.88;;;6.90;99.90;;;;;;5070714;28;20033;-71
2021/03/02 03:08:09;;;;;;;11.70;7.18;;;6.90;99.90;;;;;;5071427;28;20028;-72
2021/03/02 03:10:36;;;;;;;12.90;9.23;;;6.90;99.90;;;;;;5071386;28;20029;-71
2021/03/02 03:13:05;;;;;;;11.30;7.85;;;6.90;99.90;;;;;;5052259;28;20527;-72
2021/03/02 03:15:33;;;;;;;13.02;7.82;;;6.70;99.90;;;;;;5071294;28;20040;-70
2021/03/02 03:18:00;;;;;;;12.95;8.18;;;6.80;99.90;;;;;;5070711;28;20154;-76
2021/03/02 03:20:26;;;;;;;13.38;7.30;;;6.80;99.90;;;;;;5071151;28;20033;-71
2021/03/02 03:22:55;;;;;;;14.45;8.40;;;6.80;99.90;;;;;;5084016;28;20058;-70
2021/03/02 03:25:21;;;;;;;13.77;8.20;;;6.70;99.90;;;;;;5089410;28;20393;-70
2021/03/02 03:27:55;;;;;;;11.35;7.20;;;6.50;99.90;;;;;;5090964;28;20024;-70
2021/03/02 03:30:24;;;;;;;13.98;7.47;;;6.50;99.90;;;;;;5090571;28;20089;-70
2021/03/02 03:32:54;;;;;;;11.90;8.32;;;6.40;99.90;;;;;;5091089;28;20020;-70
2021/03/02 03:35:21;;;;;;;15.15;8.45;;;6.50;99.90;;;;;;5090828;28;20111;-71
2021/03/02 03:37:47;;;;;;;14.00;8.90;;;6.50;99.90;;;;;;5091632;28;20030;-70
2021/03/02 03:40:13;;;;;;;12.32;8.02;;;6.50;99.90;;;;;;5090659;28;20036;-70
2021/03/02 03:42:39;;;;;;;12.05;8.20;;;6.50;99.90;;;;;;5089690;28;20039;-70
2021/03/02 03:45:06;;;;;;;13.93;9.38;;;6.50;99.90;;;;;;5089203;28;20115;-71
2021/03/02 03:47:33;;;;;;;15.18;8.00;;;6.60;99.90;;;;;;5090893;28;20356;-71
2021/03/02 03:50:00;;;;;;;15.50;8.83;;;6.60;99.90;;;;;;5089608;28;20441;-71
2021/03/02 03:52:25;;;;;;;13.52;8.35;;;6.50;99.90;;;;;;5090754;28;20028;-71
2021/03/02 03:54:54;;;;;;;15.38;8.52;;;6.50;99.90;;;;;;5090716;28;20150;-72
2021/03/02 03:57:21;;;;;;;13.98;8.75;;;6.40;99.90;;;;;;5090149;28;20028;-71
2021/03/02 03:59:48;;;;;;;12.77;8.43;;;6.40;99.90;;;;;;5090629;28;20121;-71
2021/03/02 04:02:14;;;;;;;15.77;9.27;;;6.40;99.90;;;;;;5088951;28;20039;-71
2021/03/02 04:04:41;;;;;;;15.15;8.68;;;6.40;99.90;;;;;;5091454;28;20054;-71
2021/03/02 04:07:07;;;;;;;15.15;8.35;;;6.40;99.90;;;;;;5089026;28;20082;-71
2021/03/02 04:09:34;;;;;;;13.98;8.85;;;6.40;99.90;;;;;;5089735;28;20036;-71
2021/03/02 04:12:00;;;;;;;14.70;8.75;;;6.30;99.90;;;;;;5091597;28;20051;-70
2021/03/02 04:14:31;;;;;;;14.57;8.07;;;6.30;99.90;;;;;;5094105;28;20031;-71
2021/03/02 04:16:57;;;;;;;13.98;8.90;;;6.30;99.90;;;;;;5095293;28;20099;-71
2021/03/02 04:19:23;;;;;;;13.98;8.98;;;6.30;99.90;;;;;;5092712;28;20122;-71
2021/03/02 04:21:48;;;;;;;14.23;9.18;;;6.20;99.90;;;;;;5093117;28;20136;-70
2021/03/02 04:24:14;;;;;;;11.55;8.02;;;6.20;99.90;;;;;;5093958;28;20109;-71
2021/03/02 04:26:39;;;;;;;16.80;10.13;;;6.10;99.90;;;;;;5093208;28;20070;-71
2021/03/02 04:29:05;;;;;;;13.77;8.43;;;6.20;99.90;;;;;;5093823;28;20120;-71
2021/03/02 04:31:31;;;;;;;18.60;9.18;;;6.20;99.90;;;;;;5092925;28;20166;-70
2021/03/02 04:33:57;;;;;;;13.00;8.35;;;6.20;99.90;;;;;;5094316;28;20024;-71
2021/03/02 04:36:22;;;;;;;19.38;9.30;;;6.20;99.90;;;;;;5093556;28;20329;-71
2021/03/02 04:38:48;;;;;;;18.17;9.10;;;6.00;99.90;;;;;;5092761;28;20031;-71
2021/03/02 04:41:14;;;;;;;13.73;8.40;;;6.10;99.90;;;;;;5092311;28;20483;-70
2021/03/02 04:43:39;;;;;;;14.35;9.00;;;6.20;99.90;;;;;;5092672;28;20036;-71
2021/03/02 04:46:05;;;;;;;18.75;9.77;;;6.20;99.90;;;;;;5093468;28;20059;-71
2021/03/02 04:48:31;;;;;;;17.50;9.02;;;6.20;99.90;;;;;;5092518;28;20354;-69
2021/03/02 04:50:57;;;;;;;13.35;8.02;;;6.20;99.90;;;;;;5091991;28;20036;-72
2021/03/02 04:53:22;;;;;;;17.23;9.32;;;6.10;99.90;;;;;;5091188;28;20441;-71
2021/03/02 04:55:48;;;;;;;14.10;9.25;;;6.00;99.90;;;;;;5092559;28;20024;-71
2021/03/02 04:58:14;;;;;;;15.40;9.85;;;6.00;99.90;;;;;;5091533;28;20455;-72
2021/03/02 05:00:41;;;;;;;16.30;9.10;;;6.00;99.90;;;;;;5093391;28;20059;-72
2021/03/02 05:03:06;;;;;;;13.20;8.73;;;6.00;99.90;;;;;;5092186;28;20028;-75
2021/03/02 05:05:32;;;;;;;15.77;9.82;;;5.90;99.90;;;;;;5093165;28;20038;-72
2021/03/02 05:07:58;;;;;;;16.17;9.05;;;6.00;99.90;;;;;;5091424;28;20031;-71
2021/03/02 05:10:23;;;;;;;16.52;9.48;;;5.90;99.90;;;;;;5091155;28;20113;-71
2021/03/02 05:12:49;;;;;;;18.00;9.68;;;5.80;99.90;;;;;;5093614;28;20476;-72
2021/03/02 05:15:15;;;;;;;16.08;8.98;;;5.70;99.90;;;;;;5091297;28;20354;-72
2021/03/02 05:17:41;;;;;;;14.82;8.98;;;5.60;99.90;;;;;;5091346;28;20020;-72
2021/03/02 05:20:07;;;;;;;15.05;9.43;;;5.60;99.90;;;;;;5091548;28;20070;-73
2021/03/02 05:22:33;;;;;;;15.65;9.63;;;5.30;99.90;;;;;;5089191;28;20501;-73
2021/03/02 05:24:59;;;;;;;16.30;10.93;;;5.40;99.90;;;;;;5093048;28;20025;-71
2021/03/02 05:27:24;;;;;;;15.63;9.35;;;5.40;99.90;;;;;;5090935;28;20074;-70
2021/03/02 05:29:50;;;;;;;17.90;9.85;;;5.50;99.90;;;;;;5091210;28;20028;-71
2021/03/02 05:32:16;;;;;;;17.15;9.95;;;5.40;99.90;;;;;;5090419;28;20032;-71
2021/03/02 05:34:41;;;;;;;14.80;9.02;;;5.40;99.90;;;;;;5091461;28;20452;-71
2021/03/02 05:37:07;;;;;;;17.23;10.25;;;5.40;99.90;;;;;;5090406;28;20035;-72
2021/03/02 05:39:33;;;;;;;18.00;10.38;;;5.40;99.90;;;;;;5091807;28;20040;-71
2021/03/02 05:42:00;;;;;;;15.10;9.70;;;5.40;99.90;;;;;;5091714;28;20502;-71
2021/03/02 05:44:26;;;;;;;22.38;9.88;;;5.40;99.90;;;;;;5091163;28;20070;-70
2021/03/02 05:46:51;;;;;;;15.10;9.93;;;5.30;99.90;;;;;;5092812;28;20466;-72
2021/03/02 05:49:17;;;;;;;16.63;9.23;;;5.40;99.90;;;;;;5092122;28;20024;-72
2021/03/02 05:51:43;;;;;;;18.88;9.30;;;5.30;99.90;;;;;;5091783;28;20706;-72
2021/03/02 05:54:10;;;;;;;15.07;9.90;;;5.30;99.90;;;;;;5092598;28;20066;-71
2021/03/02 05:56:40;;;;;;;17.77;9.32;;;5.20;99.90;;;;;;5091288;28;20031;-71
2021/03/02 05:59:06;;;;;;;16.73;10.10;;;5.20;99.90;;;;;;5092523;28;20031;-71
2021/03/02 06:01:32;;;;;;;12.57;8.50;;;5.20;99.90;;;;;;5091149;28;20032;-71
2021/03/02 06:03:58;;;;;;;18.60;10.20;;;5.30;99.90;;;;;;5092783;28;20024;-71
2021/03/02 06:06:24;;;;;;;14.98;10.20;;;5.20;99.90;;;;;;5090922;28;20119;-71
2021/03/02 06:08:50;;;;;;;33.53;14.18;;;5.20;99.90;;;;;;5092585;28;20036;-71
2021/03/02 06:11:31;;;;;;;21.02;10.30;;;5.20;99.90;;;;;;5089919;28;20054;-71
2021/03/02 06:14:21;;;;;;;31.95;10.80;;;5.10;99.90;;;;;;5090939;28;20035;-72
2021/03/02 06:16:48;;;;;;;19.38;9.95;;;5.20;99.90;;;;;;5090182;28;20039;-72
2021/03/02 06:19:14;;;;;;;19.08;10.50;;;5.20;99.90;;;;;;5091835;28;20081;-71
2021/03/02 06:21:41;;;;;;;25.92;13.30;;;5.20;99.90;;;;;;5090842;28;20051;-71
2021/03/02 06:24:07;;;;;;;21.95;12.65;;;5.20;99.90;;;;;;5092546;28;20028;-72
2021/03/02 06:26:34;;;;;;;17.35;11.70;;;5.20;99.90;;;;;;5090390;28;20028;-71
2021/03/02 06:29:10;;;;;;;20.65;11.18;;;5.20;99.90;;;;;;5090806;28;20024;-72
2021/03/02 06:31:44;;;;;;;24.85;9.93;;;5.30;99.90;;;;;;5090874;28;20393;-71
2021/03/02 06:34:15;;;;;;;16.73;10.23;;;5.30;99.90;;;;;;5090012;28;20091;-73
2021/03/02 06:37:02;;;;;;;20.38;10.38;;;5.30;99.90;;;;;;5090886;28;20089;-71
2021/03/02 06:39:35;;;;;;;22.52;12.90;;;5.30;99.90;;;;;;5090549;28;20047;-72
2021/03/02 06:42:20;;;;;;;23.10;14.07;;;5.40;99.90;;;;;;5090840;28;20043;-71
2021/03/02 06:44:47;;;;;;;21.13;12.90;;;5.40;99.90;;;;;;5092014;28;20098;-72
2021/03/02 06:47:14;;;;;;;17.15;10.13;;;5.50;99.90;;;;;;5089745;28;20102;-72
2021/03/02 06:49:46;;;;;;;20.70;11.02;;;5.50;99.90;;;;;;5091691;28;20053;-72
2021/03/02 06:52:16;;;;;;;;;;;5.50;99.90;;;;;;5091635;28;20108;-72
2021/03/02 06:54:42;;;;;;;18.13;9.27;;;5.70;99.90;;;;;;5090422;28;19911;-71
2021/03/02 06:57:08;;;;;;;21.63;10.43;;;5.70;99.90;;;;;;5090337;28;20031;-73
2021/03/02 06:59:33;;;;;;;21.27;10.23;;;5.80;99.90;;;;;;5089797;28;20036;-73
2021/03/02 07:02:00;;;;;;;18.13;9.25;;;6.20;99.90;;;;;;5090135;28;20032;-71
2021/03/02 07:04:29;;;;;;;18.08;10.27;;;6.50;99.90;;;;;;5091161;28;20085;-71
2021/03/02 07:06:57;;;;;;;21.98;10.88;;;6.80;99.90;;;;;;5089816;28;20093;-71
2021/03/02 07:09:24;;;;;;;20.40;9.63;;;7.10;99.90;;;;;;5089478;28;20122;-71
2021/03/02 07:11:50;;;;;;;16.92;9.93;;;7.30;99.90;;;;;;5090049;28;20032;-72
2021/03/02 07:14:16;;;;;;;16.48;10.02;;;7.70;99.90;;;;;;5091021;28;20149;-71
2021/03/02 07:16:47;;;;;;;18.40;10.15;;;8.10;99.90;;;;;;5089918;28;20050;-72
2021/03/02 07:19:18;;;;;;;20.67;10.00;;;8.40;99.90;;;;;;5089243;28;20036;-74
2021/03/02 07:21:47;;;;;;;14.30;10.00;;;8.60;99.90;;;;;;5087184;28;20098;-73
2021/03/02 07:24:15;;;;;;;16.05;10.05;;;8.80;99.70;;;;;;5052725;28;20118;-72
2021/03/02 07:26:45;;;;;;;16.25;9.80;;;9.20;99.10;;;;;;5070966;28;20042;-72
2021/03/02 07:29:11;;;;;;;15.90;10.25;;;9.30;98.70;;;;;;5052737;28;20367;-73
2021/03/02 07:31:38;;;;;;;16.90;8.90;;;9.80;97.90;;;;;;5070007;28;20035;-72
2021/03/02 07:34:06;;;;;;;15.52;9.38;;;10.00;97.20;;;;;;5070456;28;20119;-72
2021/03/02 07:36:40;;;;;;;18.35;8.50;;;10.20;96.50;;;;;;5052017;28;20020;-72
2021/03/02 07:39:17;;;;;;;14.77;8.32;;;10.60;96.00;;;;;;5070645;28;20028;-72
2021/03/02 07:41:44;;;;;;;15.57;9.57;;;10.80;95.30;;;;;;5070787;28;20039;-72
2021/03/02 07:44:10;;;;;;;15.60;8.23;;;11.00;94.90;;;;;;5070609;28;20113;-72
2021/03/02 07:46:41;;;;;;;12.82;8.40;;;11.20;94.30;;;;;;5069313;28;20025;-72
2021/03/02 07:49:22;;;;;;;12.07;8.27;;;11.40;93.90;;;;;;5052366;28;20020;-72
2021/03/02 07:52:09;;;;;;;14.57;8.60;;;11.70;93.30;;;;;;5070203;28;20040;-72
2021/03/02 07:54:35;;;;;;;14.20;8.07;;;11.90;92.10;;;;;;5052876;28;20564;-71
2021/03/02 07:57:16;;;;;;;13.25;8.38;;;11.40;93.00;;;;;;5069810;28;20028;-73
2021/03/02 07:59:43;;;;;;;14.38;7.95;;;11.80;92.50;;;;;;5070624;28;20062;-72
2021/03/02 08:02:19;;;;;;;14.68;7.78;;;12.20;91.60;;;;;;5052271;28;20028;-72
2021/03/02 08:04:49;;;;;;;12.00;7.82;;;12.60;90.20;;;;;;5070523;28;20074;-71
2021/03/02 08:07:25;;;;;;;14.82;8.05;;;12.90;89.50;;;;;;5048737;28;20470;-72
2021/03/02 08:09:53;;;;;;;16.48;8.00;;;13.40;87.10;;;;;;5042053;28;20029;-72
2021/03/02 08:12:36;;;;;;;20.48;8.75;;;13.00;86.60;;;;;;5058581;28;20068;-74
2021/03/02 08:15:13;;;;;;;12.90;7.95;;;13.40;84.60;;;;;;5042298;28;20040;-73
2021/03/02 08:17:40;;;;;;;15.50;8.35;;;13.60;83.80;;;;;;5040769;28;20816;-74
2021/03/02 08:20:10;;;;;;;14.60;7.90;;;14.00;81.80;;;;;;5050015;28;20025;-74
2021/03/02 08:22:42;;;;;;;11.90;7.93;;;14.40;78.70;;;;;;5045672;28;20246;-72
2021/03/02 08:25:10;;;;;;;;;;;14.10;77.70;;;;;;5069378;28;20327;-73
2021/03/02 08:27:41;;;;;;;19.75;9.60;;;13.70;78.40;;;;;;5075462;28;20390;-73
2021/03/02 08:30:11;;;;;;;10.82;6.85;;;14.10;77.70;;;;;;5079029;28;20114;-73
2021/03/02 08:32:38;;;;;;;11.02;7.53;;;14.70;77.30;;;;;;5077985;28;20024;-73
2021/03/02 08:35:06;;;;;;;14.13;8.00;;;14.60;74.20;;;;;;5073601;28;20063;-73
2021/03/02 08:37:42;;;;;;;10.00;6.93;;;14.80;74.00;;;;;;5075292;28;20380;-73
2021/03/02 08:40:19;;;;;;;10.65;6.75;;;15.20;72.20;;;;;;5074586;28;20024;-73
2021/03/02 08:43:02;;;;;;;11.13;7.60;;;15.40;70.50;;;;;;5075553;28;20046;-73
2021/03/02 08:45:29;;;;;;;10.27;7.22;;;15.60;68.70;;;;;;5074566;28;20048;-72
2021/03/02 08:48:12;;;;;;;12.75;7.43;;;15.50;69.50;;;;;;5074079;28;20027;-72
2021/03/02 08:50:37;;;;;;;13.88;6.72;;;15.10;70.80;;;;;;5077412;28;20024;-74
2021/03/02 08:53:03;;;;;;;8.77;6.25;;;14.20;88.00;;;;;;5079273;28;20052;-71
2021/03/02 08:55:38;;;;;;;11.88;7.35;;;15.10;79.80;;;;;;5075303;28;20468;-71
2021/03/02 08:58:04;;;;;;;13.57;7.95;;;15.80;77.00;;;;;;5079678;28;20127;-78
2021/03/02 09:00:31;;;;;;;16.17;8.15;;;16.10;70.20;;;;;;5071382;28;20024;-76
2021/03/02 09:02:56;;;;;;;14.45;8.55;;;16.00;67.00;;;;;;5094392;28;20024;-77
2021/03/02 09:05:22;;;;;;;14.30;8.57;;;15.70;67.20;;;;;;5111119;28;20034;-77
2021/03/02 09:08:07;;;;;;;12.25;9.00;;;15.50;68.00;;;;;;5093027;28;20070;-76
2021/03/02 09:10:34;;;;;;;11.52;7.68;;;16.60;65.40;;;;;;5080838;28;20070;-78
2021/03/02 09:13:00;;;;;;;11.77;8.80;;;16.50;63.40;;;;;;5092123;28;20062;-78
2021/03/02 09:15:36;;;;;;;13.63;7.75;;;16.60;62.40;;;;;;5093459;28;20028;-78
2021/03/02 09:18:18;;;;;;;13.02;8.07;;;16.40;62.50;;;;;;5086211;28;20388;-76
2021/03/02 09:20:54;;;;;;;11.15;7.20;;;16.70;63.30;;;;;;5077452;28;20025;-77
2021/03/02 09:23:21;;;;;;;13.93;7.22;;;16.30;62.60;;;;;;5079154;28;20044;-78
2021/03/02 09:25:50;;;;;;;16.15;7.90;;;16.80;61.20;;;;;;5077779;28;20111;-70
2021/03/02 09:28:19;;;;;;;15.40;7.50;;;16.30;60.80;;;;;;5076442;28;20040;-71
2021/03/02 09:30:45;;;;;;;11.18;8.02;;;15.60;61.60;;;;;;5077641;28;20036;-70
2021/03/02 09:33:16;;;;;;;20.90;8.20;;;15.40;63.30;;;;;;5080085;28;20107;-70
2021/03/02 09:35:42;;;;;;;11.77;7.63;;;15.70;68.30;;;;;;5085074;28;20117;-70
2021/03/02 09:38:08;;;;;;;14.13;7.72;;;16.20;62.40;;;;;;5075212;28;20397;-68
2021/03/02 09:40:43;;;;;;;17.63;8.05;;;16.70;70.30;;;;;;5085686;28;20028;-68
2021/03/02 09:43:09;;;;;;;12.07;7.65;;;17.10;65.30;;;;;;5080496;28;20044;-66
2021/03/02 09:45:35;;;;;;;10.32;7.88;;;17.10;62.90;;;;;;5076747;28;20458;-73
2021/03/02 09:48:07;;;;;;;11.45;8.25;;;17.00;60.40;;;;;;5070463;28;20056;-72
2021/03/02 09:50:37;;;;;;;19.70;9.68;;;15.80;62.90;;;;;;5070068;28;20032;-73
2021/03/02 09:53:17;;;;;;;17.15;9.90;;;15.90;62.60;;;;;;5072609;28;20091;-73
2021/03/02 09:55:45;;;;;;;16.85;8.60;;;15.70;63.50;;;;;;5072037;28;20416;-73
2021/03/02 09:58:22;;;;;;;13.52;8.32;;;16.20;61.70;;;;;;5071454;28;20447;-73
2021/03/02 10:00:59;;;;;;;17.20;8.98;;;15.30;64.60;;;;;;5072723;28;20032;-73
2021/03/02 10:03:26;;;;;;;13.30;8.10;;;16.20;62.80;;;;;;5070608;28;20029;-72
2021/03/02 10:05:52;;;;;;;13.63;8.50;;;15.50;63.70;;;;;;5071079;28;20469;-73
2021/03/02 10:08:38;;;;;;;13.77;7.60;;;15.30;64.60;;;;;;5072206;28;20487;-73
2021/03/02 10:11:20;;;;;;;12.07;7.80;;;15.30;64.60;;;;;;5070943;28;20070;-72
2021/03/02 10:13:45;;;;;;;;;;;16.20;62.50;;;;;;5073117;28;20024;-74
2021/03/02 10:16:35;;;;;;;15.45;7.70;;;15.40;64.10;;;;;;5071925;28;20246;-73
2021/03/02 10:19:17;;;;;;;11.32;8.20;;;15.70;63.70;;;;;;5071047;28;20110;-73
2021/03/02 10:21:46;;;;;;;;;;;16.60;63.00;;;;;;5068798;28;20097;-74
2021/03/02 10:24:22;;;;;;;12.63;8.65;;;17.30;59.30;;;;;;5034448;28;19927;-73
2021/03/02 10:26:48;;;;;;;13.52;7.72;;;17.00;59.70;;;;;;5052105;28;20462;-73
2021/03/02 10:29:13;;;;;;;13.60;8.35;;;17.50;60.00;;;;;;5052010;28;20029;-73
2021/03/02 10:31:39;;;;;;;11.18;8.07;;;17.70;58.60;;;;;;5033580;28;20128;-73
2021/03/02 10:34:07;;;;;;;19.83;8.02;;;17.60;57.60;;;;;;5034667;28;20043;-74
2021/03/02 10:36:35;;;;;;;12.88;8.07;;;18.30;58.20;;;;;;5051643;28;20090;-73
2021/03/02 10:39:05;;;;;;;13.32;7.88;;;18.90;55.20;;;;;;5033955;28;20074;-74
2021/03/02 10:41:31;;;;;;;17.23;8.75;;;18.90;54.80;;;;;;5051265;28;20032;-73
2021/03/02 10:43:57;;;;;;;11.70;8.00;;;19.40;53.90;;;;;;5051700;28;20036;-73
2021/03/02 10:46:26;;;;;;;14.10;7.78;;;18.80;54.20;;;;;;5032613;28;20033;-72
2021/03/02 10:48:52;;;;;;;10.85;7.68;;;18.70;54.20;;;;;;5051353;28;20102;-72
2021/03/02 10:51:18;;;;;;;11.55;8.20;;;19.00;53.40;;;;;;5051051;28;20128;-73
2021/03/02 10:53:45;;;;;;;16.77;7.18;;;17.20;56.00;;;;;;5050642;28;20040;-73
2021/03/02 10:56:11;;;;;;;13.90;7.70;;;17.50;56.60;;;;;;5051350;28;20029;-74
2021/03/02 10:58:37;;;;;;;13.43;7.90;;;17.00;57.30;;;;;;5052485;28;20032;-73
2021/03/02 11:01:04;;;;;;;12.93;7.75;;;17.10;57.40;;;;;;5051236;28;20486;-73
2021/03/02 11:03:30;;;;;;;10.93;7.30;;;18.50;56.10;;;;;;5032294;28;20052;-73
2021/03/02 11:05:56;;;;;;;12.40;8.20;;;18.10;55.60;;;;;;5033042;28;20392;-73
2021/03/02 11:08:21;;;;;;;15.20;8.52;;;18.10;54.90;;;;;;5051320;28;20377;-73
2021/03/02 11:10:49;;;;;;;11.57;7.95;;;19.10;56.20;;;;;;5050073;28;20052;-73
2021/03/02 11:13:15;;;;;;;16.40;7.63;;;18.30;54.30;;;;;;5033197;28;20028;-73
2021/03/02 11:15:41;;;;;;;12.85;7.05;;;19.60;53.00;;;;;;5050527;28;20477;-72
2021/03/02 11:18:07;;;;;;;10.57;7.68;;;20.30;51.70;;;;;;5032896;28;20091;-73
2021/03/02 11:20:34;;;;;;;12.80;7.63;;;19.20;51.60;;;;;;5031515;28;20033;-72
2021/03/02 11:23:00;;;;;;;9.32;7.18;;;17.90;54.70;;;;;;5050462;28;20136;-72
2021/03/02 11:25:26;;;;;;;14.77;8.20;;;18.10;55.20;;;;;;5032237;28;20067;-71
2021/03/02 11:27:52;;;;;;;10.77;7.50;;;17.70;55.30;;;;;;5032663;28;20507;-74
2021/03/02 11:30:18;;;;;;;11.98;8.35;;;17.50;56.00;;;;;;5050446;28;20386;-73
2021/03/02 11:32:44;;;;;;;16.23;7.47;;;18.80;53.60;;;;;;5050168;28;20083;-73
2021/03/02 11:35:11;;;;;;;11.88;7.38;;;19.20;52.50;;;;;;5032688;28;20025;-73
2021/03/02 11:37:38;;;;;;;12.88;7.03;;;19.70;52.50;;;;;;5032235;28;20112;-73
2021/03/02 11:40:06;;;;;;;13.98;8.07;;;20.70;51.30;;;;;;5032644;28;20095;-74
2021/03/02 11:42:32;;;;;;;12.60;7.85;;;19.90;50.80;;;;;;5050109;28;20075;-74
2021/03/02 11:44:59;;;;;;;13.65;8.35;;;19.00;52.30;;;;;;5050299;28;20461;-75
2021/03/02 11:47:25;;;;;;;11.13;7.82;;;20.40;52.30;;;;;;5032612;28;20025;-76
2021/03/02 11:49:53;;;;;;;10.52;7.50;;;20.00;51.20;;;;;;5033094;28;20025;-76
2021/03/02 11:52:22;;;;;;;11.05;7.63;;;20.50;50.10;;;;;;5050745;28;20021;-74
2021/03/02 11:54:49;;;;;;;14.25;7.57;;;21.30;49.00;;;;;;5050672;28;20116;-76
2021/03/02 11:57:15;;;;;;;14.68;8.02;;;22.20;47.90;;;;;;5033096;28;20052;-75
2021/03/02 11:59:41;;;;;;;10.25;7.63;;;22.00;47.50;;;;;;5032665;28;20029;-75
2021/03/02 12:02:08;;;;;;;9.90;7.57;;;21.80;47.00;;;;;;5032903;28;20033;-75
2021/03/02 12:04:34;;;;;;;14.02;7.65;;;21.10;47.70;;;;;;5031964;28;20120;-75
2021/03/02 12:06:59;;;;;;;14.15;8.07;;;21.90;47.20;;;;;;5050446;28;20064;-76
2021/03/02 12:09:25;;;;;;;12.88;8.77;;;21.90;47.60;;;;;;5050752;28;20158;-75
2021/03/02 12:11:51;;;;;;;13.65;8.65;;;21.40;47.60;;;;;;5031801;28;20481;-76
2021/03/02 12:14:17;;;;;;;12.65;8.98;;;21.50;47.50;;;;;;5032384;28;20155;-75
2021/03/02 12:16:43;;;;;;;13.07;7.53;;;22.20;46.70;;;;;;5032041;28;20386;-76
2021/03/02 12:19:09;;;;;;;12.13;7.25;;;22.70;46.10;;;;;;5032717;28;20029;-76
2021/03/02 12:21:34;;;;;;;10.52;7.80;;;23.30;45.30;;;;;;5049832;28;20029;-76
2021/03/02 12:24:00;;;;;;;10.52;7.28;;;23.30;44.40;;;;;;5031806;28;20124;-75
2021/03/02 12:26:26;;;;;;;12.85;7.80;;;22.90;45.60;;;;;;5050040;28;20112;-75
2021/03/02 12:28:51;;;;;;;12.02;7.40;;;22.60;45.00;;;;;;5031802;28;20386;-75
2021/03/02 12:31:17;;;;;;;14.05;7.22;;;23.00;45.40;;;;;;5050152;28;20040;-77
2021/03/02 12:33:43;;;;;;;11.88;7.85;;;24.00;45.00;;;;;;5035236;28;20033;-75
2021/03/02 12:36:09;;;;;;;11.52;7.13;;;23.50;44.40;;;;;;5036048;28;20095;-75
2021/03/02 12:38:34;;;;;;;8.80;6.97;;;23.40;44.70;;;;;;5035177;28;20033;-76
2021/03/02 12:41:00;;;;;;;16.60;7.40;;;24.10;44.20;;;;;;5036385;28;20028;-75
2021/03/02 12:43:26;;;;;;;9.80;7.00;;;24.50;43.90;;;;;;5054284;28;20136;-76
2021/03/02 12:45:51;;;;;;;10.93;7.90;;;23.10;45.00;;;;;;5035272;28;20458;-75
2021/03/02 12:48:17;;;;;;;8.98;6.60;;;23.70;43.10;;;;;;5035675;28;20025;-75
2021/03/02 12:50:44;;;;;;;13.07;7.95;;;23.10;43.40;;;;;;5052869;28;20025;-77